Time;durP1;ratioP1;P1;durP2;ratioP2;P2;SDS_P1;SDS_P2;PMS_P1;PMS_P2;Temp;Humidity;BMP_temperature;BMP_pressure;BME280_temperature;BME280_humidity;BME280_pressure;Samples;Min_cycle;Max_cycle;Signal;HPM_P1;HPM_P2
2023/04/04 00:01:51;;;;;;;0.30;0.30;;;;;;;0.70;68.29;100251.81;6191141;23;20017;-93
2023/04/04 00:04:16;;;;;;;0.20;0.20;;;;;;;0.64;68.76;100244.31;6139712;23;20005;-93
2023/04/04 00:06:44;;;;;;;1.88;1.45;;;;;;;0.81;68.42;100274.63;6156279;23;20017;-94
2023/04/04 00:09:11;;;;;;;0.25;0.25;;;;;;;0.77;69.71;100276.50;6131704;23;20113;-93
2023/04/04 00:11:37;;;;;;;1.05;1.02;;;;;;;0.41;70.51;100230.66;6156558;23;20100;-93
2023/04/04 00:14:04;;;;;;;0.30;0.28;;;;;;;0.46;70.43;100258.44;6156429;23;20088;-93
2023/04/04 00:16:29;;;;;;;0.00;0.00;;;;;;;0.53;70.31;100246.84;6131150;23;20024;-94
2023/04/04 00:18:55;;;;;;;0.40;0.40;;;;;;;0.58;70.11;100257.47;6155934;23;20021;-93
2023/04/04 00:21:22;;;;;;;0.30;0.30;;;;;;;0.41;70.61;100236.13;6181155;23;20430;-93
2023/04/04 00:23:48;;;;;;;0.93;0.93;;;;;;;0.41;70.84;100244.31;6155742;23;20099;-93
2023/04/04 00:26:14;;;;;;;0.00;0.00;;;;;;;0.43;70.55;100252.94;6130937;23;20049;-93
2023/04/04 00:28:40;;;;;;;0.75;0.75;;;;;;;0.45;70.24;100256.06;6131313;23;20048;-93
2023/04/04 00:31:06;;;;;;;0.00;0.00;;;;;;;0.30;69.95;100238.66;6156435;23;20005;-93
2023/04/04 00:33:32;;;;;;;0.00;0.00;;;;;;;0.29;70.70;100230.84;6180695;23;20017;-92
2023/04/04 00:35:58;;;;;;;0.30;0.30;;;;;;;0.25;70.99;100235.44;6132168;23;20021;-93
2023/04/04 00:38:23;;;;;;;0.10;0.10;;;;;;;0.34;71.35;100255.09;6155493;23;20032;-93
2023/04/04 00:40:50;;;;;;;0.45;0.45;;;;;;;0.37;70.95;100266.06;6158434;23;20020;-94
2023/04/04 00:43:17;;;;;;;0.00;0.00;;;;;;;0.20;71.34;100233.03;6155259;23;20036;-93
2023/04/04 00:45:43;;;;;;;0.35;0.35;;;;;;;0.02;71.56;100218.28;6155901;23;20005;-93
2023/04/04 00:48:08;;;;;;;4.03;0.90;;;;;;;0.26;72.21;100265.09;6180760;23;20019;-93
2023/04/04 00:50:35;;;;;;;0.10;0.10;;;;;;;0.10;72.77;100233.63;6131230;23;20028;-93
2023/04/04 00:53:00;;;;;;;12.35;1.02;;;;;;;0.25;73.05;100254.53;6155980;23;20145;-93
2023/04/04 00:55:26;;;;;;;0.00;0.00;;;;;;;0.19;72.68;100240.44;6130721;23;20020;-93
2023/04/04 00:57:52;;;;;;;0.15;0.15;;;;;;;0.13;73.63;100235.59;6155707;23;20317;-94
2023/04/04 01:03:17;;;;;;;0.03;0.03;;;;;;;0.04;73.50;100230.41;6108953;23;20132;-86
2023/04/04 01:05:42;;;;;;;1.38;0.95;;;;;;;0.19;73.48;100248.59;6051954;23;20119;-85
2023/04/04 01:08:08;;;;;;;0.08;0.08;;;;;;;0.21;73.51;100257.19;6092918;23;20109;-84
2023/04/04 01:10:34;;;;;;;0.05;0.05;;;;;;;0.10;74.81;100244.53;6095272;23;20010;-85
2023/04/04 01:13:00;;;;;;;0.00;0.00;;;;;;;0.08;74.18;100252.28;6048472;23;20509;-85
2023/04/04 01:15:27;;;;;;;0.00;0.00;;;;;;;0.03;73.68;100241.69;6072878;23;20479;-85
2023/04/04 01:17:56;;;;;;;0.10;0.10;;;;;;;0.03;73.51;100241.69;6120647;23;20132;-85
2023/04/04 01:20:25;;;;;;;0.03;0.03;;;;;;;0.12;73.67;100258.59;6076250;23;20018;-95
2023/04/04 01:22:54;;;;;;;0.28;0.28;;;;;;;0.08;73.57;100252.28;6124107;23;20109;-93
2023/04/04 01:25:33;;;;;;;0.00;0.00;;;;;;;0.11;73.96;100254.28;6100066;23;20022;-93
2023/04/04 01:28:09;;;;;;;0.28;0.20;;;;;;;-0.02;75.45;100238.09;6107324;23;20430;-95
2023/04/04 01:30:35;;;;;;;0.60;0.60;;;;;;;-0.06;74.78;100233.72;6129571;23;20017;-94
2023/04/04 01:33:25;;;;;;;1.00;0.30;;;;;;;-0.03;74.80;100246.63;6118780;23;20017;-94
2023/04/04 01:36:18;;;;;;;0.98;0.95;;;;;;;-0.02;74.39;100240.81;6129661;23;20020;-93
2023/04/04 01:39:04;;;;;;;0.00;0.00;;;;;;;-0.05;75.27;100238.81;6129221;23;20428;-94
2023/04/04 01:41:34;;;;;;;0.52;0.52;;;;;;;-0.03;74.99;100236.50;6154890;23;20064;-93
2023/04/04 01:44:02;;;;;;;0.10;0.10;;;;;;;-0.05;75.85;100233.38;6082160;23;20088;-93
2023/04/04 01:46:28;;;;;;;0.47;0.47;;;;;;;-0.11;75.50;100212.97;6129998;23;20001;-93
2023/04/04 01:48:53;;;;;;;0.22;0.20;;;;;;;-0.11;76.08;100223.09;6104267;23;20114;-92
2023/04/04 01:51:24;;;;;;;0.55;0.55;;;;;;;-0.13;75.96;100226.19;6155973;23;20055;-96
2023/04/04 01:53:51;;;;;;;0.00;0.00;;;;;;;-0.22;77.41;100212.00;6130838;23;20044;-95
2023/04/04 01:56:17;;;;;;;0.00;0.00;;;;;;;-0.19;77.46;100208.53;6154384;23;20481;-96
2023/04/04 01:58:43;;;;;;;0.88;0.65;;;;;;;-0.19;77.63;100218.66;6130690;23;20025;-94
2023/04/04 02:01:08;;;;;;;0.15;0.15;;;;;;;-0.23;77.42;100209.63;6129881;23;20022;-95
2023/04/04 02:03:34;;;;;;;0.10;0.10;;;;;;;-0.30;78.32;100188.47;6128707;23;20013;-96
2023/04/04 02:06:00;;;;;;;0.15;0.15;;;;;;;-0.23;77.95;100199.50;6150718;23;20027;-87
2023/04/04 02:08:27;;;;;;;0.00;0.00;;;;;;;-0.26;77.60;100188.53;6101168;23;20017;-86
2023/04/04 02:11:00;;;;;;;0.00;0.00;;;;;;;-0.32;78.57;100193.47;6125068;23;20016;-86
2023/04/04 02:13:27;;;;;;;0.00;0.00;;;;;;;-0.27;79.22;100198.66;6100931;23;20027;-86
2023/04/04 02:15:55;;;;;;;0.00;0.00;;;;;;;-0.25;78.84;100201.81;6126142;23;20013;-87
2023/04/04 02:18:23;;;;;;;0.00;0.00;;;;;;;-0.33;79.63;100191.13;6125451;23;20025;-86
2023/04/04 02:20:55;;;;;;;0.08;0.08;;;;;;;-0.38;80.13;100184.03;6125201;23;20110;-87
2023/04/04 02:23:20;;;;;;;0.00;0.00;;;;;;;-0.47;80.34;100169.84;6125051;23;20161;-86
2023/04/04 02:25:49;;;;;;;0.03;0.03;;;;;;;-0.36;79.68;100184.44;6100940;23;20096;-86
2023/04/04 02:28:15;;;;;;;2.65;0.47;;;;;;;-0.31;80.16;100186.88;6125041;23;20097;-87
2023/04/04 02:30:41;;;;;;;0.10;0.10;;;;;;;-0.30;80.65;100184.97;6150220;23;20447;-86
2023/04/04 02:33:07;;;;;;;1.95;1.20;;;;;;;-0.39;81.32;100174.28;6101370;23;20041;-87
2023/04/04 02:35:33;;;;;;;0.40;0.40;;;;;;;-0.45;81.87;100170.28;6149759;23;20100;-86
2023/04/04 02:37:59;;;;;;;0.25;0.25;;;;;;;-0.39;81.74;100185.19;6151079;23;20017;-86
2023/04/04 02:40:38;;;;;;;0.00;0.00;;;;;;;-0.39;81.85;100185.19;6127312;23;20005;-85
2023/04/04 02:43:04;;;;;;;0.57;0.57;;;;;;;-0.36;81.82;100183.69;6125237;23;20024;-86
2023/04/04 02:45:29;;;;;;;0.10;0.10;;;;;;;-0.37;82.81;100182.91;6101634;23;20014;-86
2023/04/04 02:48:04;;;;;;;1.60;1.48;;;;;;;-0.42;81.88;100172.28;6126744;23;20352;-86
2023/04/04 02:50:38;;;;;;;0.10;0.10;;;;;;;-0.56;83.84;100166.53;6127103;23;20360;-86
2023/04/04 02:53:04;;;;;;;0.10;0.10;;;;;;;-0.44;83.51;100184.69;6124882;23;20040;-86
2023/04/04 02:55:33;;;;;;;0.10;0.10;;;;;;;-0.56;84.11;100158.34;6101712;23;20017;-86
2023/04/04 02:58:00;;;;;;;0.17;0.17;;;;;;;-0.51;84.78;100177.16;6149603;23;20013;-86
2023/04/04 03:00:26;;;;;;;0.00;0.00;;;;;;;-0.49;83.79;100183.03;6125318;23;20458;-86
2023/04/04 03:02:56;;;;;;;0.20;0.20;;;;;;;-0.43;84.65;100197.16;6125527;23;20101;-86
2023/04/04 03:05:28;;;;;;;0.00;0.00;;;;;;;-0.53;85.37;100184.91;6103001;23;20013;-87
2023/04/04 03:07:55;;;;;;;0.40;0.40;;;;;;;-0.48;84.90;100182.66;6124478;23;20024;-86
2023/04/04 03:10:22;;;;;;;0.43;0.35;;;;;;;-0.56;85.32;100185.59;6124758;23;20017;-85
2023/04/04 03:12:48;;;;;;;0.00;0.00;;;;;;;-0.55;85.10;100187.97;6125169;23;20014;-86
2023/04/04 03:15:14;;;;;;;0.10;0.10;;;;;;;-0.53;86.05;100184.91;6129636;23;20075;-95
2023/04/04 03:17:40;;;;;;;0.00;0.00;;;;;;;-0.55;85.52;100192.63;6154751;23;20001;-95
2023/04/04 03:20:06;;;;;;;0.30;0.30;;;;;;;-0.58;85.85;100182.47;6105262;23;20024;-95
2023/04/04 03:22:32;;;;;;;0.00;0.00;;;;;;;-0.68;86.00;100166.69;6129415;23;20053;-92
2023/04/04 03:25:00;;;;;;;0.35;0.35;;;;;;;-0.58;86.43;100193.38;6131574;23;20104;-95
2023/04/04 03:27:27;;;;;;;0.35;0.35;;;;;;;-0.56;87.38;100191.06;6131981;23;20032;-94
2023/04/04 03:29:53;;;;;;;0.00;0.00;;;;;;;-0.55;86.60;100200.81;6156566;23;20014;-96
2023/04/04 03:32:18;;;;;;;1.20;0.55;;;;;;;-0.55;86.49;100198.09;6107358;23;20107;-95
2023/04/04 03:34:44;;;;;;;0.00;0.00;;;;;;;-0.56;86.88;100196.50;6131243;23;20057;-95
2023/04/04 03:37:10;;;;;;;0.00;0.00;;;;;;;-0.60;87.60;100187.47;6106586;23;20028;-95
2023/04/04 03:39:35;;;;;;;0.10;0.10;;;;;;;-0.59;87.91;100205.41;6131618;23;20388;-95
2023/04/04 03:42:05;;;;;;;0.45;0.45;;;;;;;-0.58;88.00;100201.53;6131646;23;20029;-95
2023/04/04 03:44:31;;;;;;;0.10;0.10;;;;;;;-0.62;88.10;100203.41;6132488;23;20017;-95
2023/04/04 03:46:58;;;;;;;2.08;0.88;;;;;;;-0.63;88.58;100207.25;6132318;23;20018;-95
2023/04/04 03:49:24;;;;;;;0.28;0.28;;;;;;;-0.68;88.18;100205.59;6131869;23;20013;-94
2023/04/04 03:51:49;;;;;;;0.00;0.00;;;;;;;-0.62;88.58;100208.84;6131365;23;20511;-94
2023/04/04 03:54:16;;;;;;;0.93;0.88;;;;;;;-0.61;88.44;100224.06;6130802;23;20013;-94
2023/04/04 03:56:42;;;;;;;0.10;0.10;;;;;;;-0.68;88.75;100210.25;6131865;23;20072;-95
2023/04/04 03:59:08;;;;;;;0.28;0.28;;;;;;;-0.60;88.01;100222.88;6104935;23;20009;-86
2023/04/04 04:01:34;;;;;;;0.30;0.30;;;;;;;-0.63;88.48;100216.22;6125984;23;20021;-85
2023/04/04 04:04:01;;;;;;;0.00;0.00;;;;;;;-0.64;87.88;100232.91;6126242;23;20020;-85
2023/04/04 04:06:27;;;;;;;0.10;0.10;;;;;;;-0.65;88.91;100231.38;6150783;23;20013;-85
2023/04/04 04:08:52;;;;;;;0.30;0.30;;;;;;;-0.72;90.22;100214.84;6101607;23;20017;-86
2023/04/04 04:11:18;;;;;;;0.10;0.10;;;;;;;-0.83;90.33;100211.13;6128478;23;20024;-95
2023/04/04 04:13:44;;;;;;;0.45;0.35;;;;;;;-0.69;90.55;100225.06;6130703;23;20097;-93
2023/04/04 04:16:10;;;;;;;0.30;0.30;;;;;;;-0.89;89.59;100190.78;6106112;23;20049;-95
2023/04/04 04:18:36;;;;;;;0.47;0.25;;;;;;;-0.87;90.38;100204.81;6106661;23;20301;-95
2023/04/04 04:21:04;;;;;;;0.47;0.47;;;;;;;-0.86;91.25;100201.72;6106486;23;20119;-93
2023/04/04 04:23:31;;;;;;;0.00;0.00;;;;;;;-0.87;89.96;100212.97;6107260;23;20017;-94
2023/04/04 04:25:56;;;;;;;0.10;0.10;;;;;;;-0.70;90.79;100234.38;6129197;23;20432;-95
2023/04/04 04:28:24;;;;;;;0.00;0.00;;;;;;;-0.97;91.67;100193.31;6106723;23;20159;-93
2023/04/04 04:30:50;;;;;;;0.20;0.20;;;;;;;-0.79;92.39;100220.94;6154154;23;20474;-94
2023/04/04 04:33:20;;;;;;;0.00;0.00;;;;;;;-0.86;92.70;100209.09;6129394;23;20064;-93
2023/04/04 04:36:03;;;;;;;0.08;0.08;;;;;;;-0.77;92.46;100228.78;6129048;23;20040;-95
2023/04/04 04:38:38;;;;;;;18.85;2.30;;;;;;;-1.04;92.50;100189.66;6130348;23;20018;-86
2023/04/04 04:41:04;;;;;;;0.55;0.55;;;;;;;-1.02;92.83;100190.09;6101075;23;20018;-85
2023/04/04 04:43:39;;;;;;;0.10;0.10;;;;;;;-0.78;93.30;100236.16;6127089;23;20013;-84
2023/04/04 04:46:07;;;;;;;0.20;0.20;;;;;;;-0.75;93.76;100245.53;6101237;23;20412;-86
2023/04/04 04:48:33;;;;;;;0.00;0.00;;;;;;;-0.82;93.49;100212.69;6150527;23;20025;-86
2023/04/04 04:50:59;;;;;;;0.00;0.00;;;;;;;-0.82;93.67;100223.59;6151649;23;20591;-86
2023/04/04 04:53:36;;;;;;;0.10;0.10;;;;;;;-0.71;93.01;100243.66;6128871;23;20021;-86
2023/04/04 04:56:04;;;;;;;0.05;0.05;;;;;;;-0.73;92.53;100227.72;6124722;23;20101;-86
2023/04/04 04:58:34;;;;;;;0.10;0.10;;;;;;;-0.80;93.24;100215.84;6125842;23;20020;-86
2023/04/04 05:01:02;;;;;;;0.32;0.32;;;;;;;-0.66;93.21;100246.91;6100219;23;20025;-85
2023/04/04 05:03:35;;;;;;;0.22;0.22;;;;;;;-0.66;94.70;100235.22;6102545;23;20764;-85
2023/04/04 05:06:03;;;;;;;0.30;0.30;;;;;;;-0.63;92.64;100235.31;6124809;23;20363;-85
2023/04/04 05:08:29;;;;;;;0.32;0.32;;;;;;;-0.62;93.01;100230.66;6124506;23;20017;-85
2023/04/04 05:11:15;;;;;;;0.45;0.45;;;;;;;-0.52;92.83;100238.22;6137925;23;20041;-85
2023/04/04 05:13:41;;;;;;;0.00;0.00;;;;;;;-0.47;93.15;100232.50;6100361;23;20017;-86
2023/04/04 05:16:07;;;;;;;0.10;0.10;;;;;;;-0.45;92.33;100226.72;6125229;23;20045;-85
2023/04/04 05:18:35;;;;;;;0.25;0.25;;;;;;;-0.43;92.23;100218.94;6100545;23;20130;-86
2023/04/04 05:21:02;;;;;;;0.03;0.03;;;;;;;-0.32;92.21;100228.91;6124306;23;20028;-85
2023/04/04 05:23:29;;;;;;;0.20;0.20;;;;;;;-0.30;91.98;100201.31;6124281;23;20022;-85
2023/04/04 05:25:55;;;;;;;0.57;0.57;;;;;;;-0.22;92.57;100212.00;6124021;23;20428;-85
2023/04/04 05:28:24;;;;;;;0.00;0.00;;;;;;;-0.17;91.65;100214.44;6125270;23;20104;-85
2023/04/04 05:30:54;;;;;;;0.40;0.40;;;;;;;-0.16;90.67;100207.81;6125472;23;20044;-85
2023/04/04 05:33:24;;;;;;;1.23;1.13;;;;;;;-0.14;91.43;100196.56;6125685;23;20052;-94
2023/04/04 05:35:59;;;;;;;0.50;0.50;;;;;;;-0.01;89.58;100215.13;6125678;23;20018;-85
2023/04/04 05:38:29;;;;;;;2.30;0.90;;;;;;;-0.03;89.66;100186.63;6100819;23;20439;-85
2023/04/04 05:40:55;;;;;;;5.65;0.90;;;;;;;0.14;89.99;100218.09;6099484;23;20128;-86
2023/04/04 05:43:22;;;;;;;0.50;0.50;;;;;;;0.11;88.69;100186.09;6123237;23;20013;-86
2023/04/04 05:45:59;;;;;;;3.55;0.50;;;;;;;0.41;86.71;100217.00;6149049;23;20444;-86
2023/04/04 05:48:26;;;;;;;0.50;0.50;;;;;;;0.40;86.15;100201.81;6125481;23;20471;-86
2023/04/04 05:50:52;;;;;;;0.30;0.30;;;;;;;0.70;84.15;100229.19;6148091;23;20029;-86
2023/04/04 05:53:27;;;;;;;1.27;1.17;;;;;;;0.77;83.72;100210.22;6136059;23;20013;-95
2023/04/04 05:55:53;;;;;;;0.57;0.57;;;;;;;0.72;80.41;100185.94;6139286;23;20013;-93
2023/04/04 05:58:23;;;;;;;0.60;0.60;;;;;;;1.23;79.43;100243.66;6140251;23;20053;-95
2023/04/04 06:00:53;;;;;;;;;;;;;;;1.49;79.32;100237.38;6143122;23;20013;-95
2023/04/04 06:03:19;;;;;;;0.20;0.20;;;;;;;1.67;76.67;100239.16;6160439;23;19928;-95
2023/04/04 06:05:51;;;;;;;0.10;0.10;;;;;;;1.36;74.08;100191.13;6167645;23;20017;-95
2023/04/04 06:08:17;;;;;;;0.30;0.30;;;;;;;1.54;73.52;100196.81;6137616;23;20013;-95
2023/04/04 06:10:43;;;;;;;0.38;0.38;;;;;;;1.95;72.14;100248.84;6127102;23;20020;-85
2023/04/04 06:13:09;;;;;;;0.88;0.57;;;;;;;1.76;73.26;100214.25;6124921;23;20098;-85
2023/04/04 06:15:35;;;;;;;0.47;0.47;;;;;;;1.87;73.00;100221.41;6100912;23;20101;-86
2023/04/04 06:18:01;;;;;;;0.25;0.25;;;;;;;2.12;71.44;100218.16;6100615;23;20025;-86
2023/04/04 06:20:28;;;;;;;0.10;0.10;;;;;;;2.22;70.83;100209.28;6103723;23;20022;-94
2023/04/04 06:22:54;;;;;;;1.00;0.98;;;;;;;2.12;67.98;100209.94;6118912;23;20018;-95
2023/04/04 06:25:20;;;;;;;0.45;0.45;;;;;;;2.17;68.60;100210.41;6122007;23;20021;-95
2023/04/04 06:27:47;;;;;;;0.10;0.10;;;;;;;2.36;68.94;100220.34;6144390;23;20024;-95
2023/04/04 06:30:15;;;;;;;0.10;0.10;;;;;;;2.26;69.78;100204.63;6142604;23;20028;-94
2023/04/04 06:32:43;;;;;;;0.45;0.13;;;;;;;2.28;67.29;100196.81;6144712;23;20411;-95
2023/04/04 06:35:14;;;;;;;0.93;0.88;;;;;;;2.93;67.18;100251.75;6117070;23;20013;-94
2023/04/04 06:37:54;;;;;;;0.20;0.20;;;;;;;2.60;63.22;100214.31;6121579;23;20016;-95
2023/04/04 06:40:21;;;;;;;0.30;0.30;;;;;;;2.65;63.85;100222.19;6139372;23;20010;-95
2023/04/04 06:42:56;;;;;;;0.47;0.47;;;;;;;2.78;64.04;100217.97;6112829;23;20018;-94
2023/04/04 06:45:26;;;;;;;0.08;0.08;;;;;;;2.89;63.11;100220.78;6114385;23;20021;-95
2023/04/04 06:47:53;;;;;;;0.03;0.03;;;;;;;2.96;62.83;100192.63;6137505;23;20103;-95
2023/04/04 06:50:20;;;;;;;0.55;0.55;;;;;;;2.89;62.13;100204.34;6114929;23;20041;-95
2023/04/04 06:52:47;;;;;;;0.10;0.10;;;;;;;3.01;62.81;100195.81;6143802;23;20024;-94
2023/04/04 06:55:13;;;;;;;0.98;0.98;;;;;;;3.20;61.14;100178.28;6173156;23;20013;-94
2023/04/04 06:57:38;;;;;;;0.40;0.40;;;;;;;3.22;59.57;100176.75;6167259;23;20010;-94
2023/04/04 07:00:05;;;;;;;0.85;0.85;;;;;;;3.28;60.57;100171.69;6143623;23;20069;-94
2023/04/04 07:02:31;;;;;;;1.05;1.05;;;;;;;3.40;58.18;100173.31;6139273;23;20366;-94
2023/04/04 07:04:57;;;;;;;0.20;0.20;;;;;;;3.59;57.41;100173.00;6118578;23;20017;-94
2023/04/04 07:07:23;;;;;;;0.75;0.75;;;;;;;3.19;56.55;100193.19;6117183;23;20074;-95
2023/04/04 07:09:49;;;;;;;0.47;0.47;;;;;;;3.25;57.60;100184.22;6163980;23;20029;-96
2023/04/04 07:12:15;;;;;;;0.82;0.82;;;;;;;3.48;56.78;100192.13;6164178;23;20262;-95
2023/04/04 07:14:41;;;;;;;0.00;0.00;;;;;;;3.52;56.04;100187.44;6116568;23;20021;-94
2023/04/04 07:17:07;;;;;;;0.08;0.08;;;;;;;3.26;55.66;100185.00;6115694;23;20342;-94
2023/04/04 07:19:32;;;;;;;0.10;0.10;;;;;;;3.36;56.11;100184.25;6107411;23;20044;-85
2023/04/04 07:21:58;;;;;;;0.85;0.85;;;;;;;3.71;56.71;100209.09;6131412;23;20023;-85
2023/04/04 07:24:24;;;;;;;6.50;0.98;;;;;;;3.85;55.64;100202.06;6131478;23;20008;-85
2023/04/04 07:26:49;;;;;;;0.65;0.57;;;;;;;3.68;55.16;100193.41;6107582;23;20618;-86
2023/04/04 07:29:15;;;;;;;0.40;0.40;;;;;;;3.66;55.38;100187.53;6155987;23;20446;-86
2023/04/04 07:31:40;;;;;;;0.20;0.20;;;;;;;3.70;54.41;100171.84;6106095;23;20359;-86
2023/04/04 07:34:06;;;;;;;1.27;1.23;;;;;;;3.75;53.84;100189.91;6131474;23;20009;-86
2023/04/04 07:36:32;;;;;;;0.63;0.63;;;;;;;3.84;53.58;100195.03;6107806;23;20017;-86
2023/04/04 07:38:58;;;;;;;0.20;0.20;;;;;;;3.93;52.45;100170.72;6107021;23;20005;-87
2023/04/04 07:41:24;;;;;;;0.65;0.65;;;;;;;3.99;51.91;100200.16;6107011;23;20095;-85
2023/04/04 07:43:50;;;;;;;0.20;0.20;;;;;;;4.08;53.70;100180.59;6131763;23;20029;-86
2023/04/04 07:46:16;;;;;;;0.10;0.10;;;;;;;4.33;52.17;100194.34;6133304;23;20065;-94
2023/04/04 07:48:42;;;;;;;0.10;0.10;;;;;;;4.03;50.57;100167.22;6162841;23;20009;-94
2023/04/04 07:51:08;;;;;;;0.45;0.30;;;;;;;4.05;50.92;100184.09;6116253;23;20013;-95
2023/04/04 07:53:33;;;;;;;0.35;0.35;;;;;;;4.08;50.31;100180.59;6139509;23;20398;-93
2023/04/04 07:56:05;;;;;;;1.10;1.00;;;;;;;4.30;50.38;100198.63;6163899;23;20044;-94
2023/04/04 07:58:32;;;;;;;0.25;0.25;;;;;;;4.69;50.12;100213.19;6165821;23;20017;-94
2023/04/04 08:00:58;;;;;;;0.10;0.10;;;;;;;4.81;49.98;100223.00;6161002;23;20013;-95
2023/04/04 08:03:24;;;;;;;0.30;0.30;;;;;;;4.88;50.27;100205.72;6159555;23;20149;-86
2023/04/04 08:05:50;;;;;;;0.38;0.20;;;;;;;4.76;48.99;100219.84;6131651;23;20084;-86
2023/04/04 08:08:15;;;;;;;0.10;0.10;;;;;;;4.91;49.89;100222.19;6131272;23;20098;-87
2023/04/04 08:10:41;;;;;;;0.10;0.10;;;;;;;5.11;49.23;100214.31;6105900;23;20023;-87
2023/04/04 08:13:08;;;;;;;0.77;0.77;;;;;;;4.97;49.04;100219.84;6106552;23;20481;-86
2023/04/04 08:15:35;;;;;;;0.20;0.20;;;;;;;5.11;48.14;100208.81;6133447;23;20009;-94
2023/04/04 08:18:00;;;;;;;0.45;0.45;;;;;;;5.45;48.16;100223.69;6159198;23;20011;-95
2023/04/04 08:20:27;;;;;;;0.45;0.45;;;;;;;5.35;47.77;100218.97;6159504;23;20058;-95
2023/04/04 08:22:52;;;;;;;0.30;0.30;;;;;;;5.48;47.39;100216.59;6159664;23;20020;-94
2023/04/04 08:25:18;;;;;;;2.30;0.90;;;;;;;5.37;47.68;100210.34;6159393;23;20009;-95
2023/04/04 08:27:44;;;;;;;0.80;0.80;;;;;;;5.05;47.03;100210.41;6136356;23;20075;-95
2023/04/04 08:30:13;;;;;;;0.73;0.73;;;;;;;5.39;47.04;100216.22;6136383;23;20017;-94
2023/04/04 08:32:40;;;;;;;0.30;0.30;;;;;;;5.25;48.12;100197.00;6137131;23;20013;-95
2023/04/04 08:35:07;;;;;;;0.00;0.00;;;;;;;5.25;48.51;100191.50;6139802;23;20055;-94
2023/04/04 08:37:34;;;;;;;0.10;0.10;;;;;;;5.25;47.94;100186.00;6117594;23;20013;-95
2023/04/04 08:40:01;;;;;;;0.38;0.25;;;;;;;5.28;46.95;100164.00;6139672;23;20017;-96
2023/04/04 08:42:27;;;;;;;0.35;0.35;;;;;;;5.39;45.97;100161.97;6115102;23;20017;-95
2023/04/04 08:44:54;;;;;;;0.15;0.15;;;;;;;5.08;46.70;100165.63;6106999;23;20477;-86
2023/04/04 08:47:20;;;;;;;0.43;0.43;;;;;;;5.18;46.97;100162.84;6181964;23;20012;-87
2023/04/04 08:49:46;;;;;;;0.95;0.90;;;;;;;5.42;47.21;100194.19;6155508;23;20391;-87
2023/04/04 08:52:14;;;;;;;0.47;0.47;;;;;;;5.38;46.65;100207.16;6130706;23;20009;-86
2023/04/04 08:54:40;;;;;;;0.45;0.45;;;;;;;5.19;47.52;100199.38;6154935;23;20458;-86
2023/04/04 08:57:07;;;;;;;0.43;0.30;;;;;;;5.18;47.43;100187.59;6130660;23;20125;-87
2023/04/04 08:59:32;;;;;;;0.00;0.00;;;;;;;5.14;47.97;100188.78;6155264;23;20009;-87
2023/04/04 09:02:07;;;;;;;0.77;0.57;;;;;;;5.26;46.50;100182.84;6196733;23;20016;-96
2023/04/04 09:04:33;;;;;;;4.18;1.85;;;;;;;5.44;46.73;100180.84;6146234;23;20095;-96
2023/04/04 09:07:01;;;;;;;0.00;0.00;;;;;;;5.42;47.32;100179.69;6120125;23;20013;-95
2023/04/04 09:09:27;;;;;;;0.63;0.63;;;;;;;5.80;46.12;100186.19;6147078;23;20013;-95
2023/04/04 09:11:53;;;;;;;0.32;0.32;;;;;;;5.92;45.86;100147.22;6111986;23;20021;-87
2023/04/04 09:14:20;;;;;;;0.10;0.10;;;;;;;6.08;45.10;100158.50;6130386;23;20072;-86
2023/04/04 09:16:45;;;;;;;0.00;0.00;;;;;;;6.10;45.96;100175.44;6155587;23;20011;-87
2023/04/04 09:19:11;;;;;;;3.88;1.83;;;;;;;5.80;46.65;100175.16;6105845;23;20017;-87
2023/04/04 09:21:37;;;;;;;0.98;0.60;;;;;;;5.65;46.10;100155.19;6181399;23;20001;-87
2023/04/04 09:24:03;;;;;;;1.08;0.30;;;;;;;5.73;46.09;100188.97;6152820;23;20466;-88
2023/04/04 09:26:46;;;;;;;1.05;1.05;;;;;;;5.66;45.69;100191.75;6180281;23;20017;-88
2023/04/04 09:29:12;;;;;;;0.13;0.13;;;;;;;5.71;46.11;100185.81;6159842;23;20016;-96
2023/04/04 09:31:38;;;;;;;0.20;0.20;;;;;;;5.88;46.15;100146.44;6147688;23;20017;-96
2023/04/04 09:34:04;;;;;;;0.43;0.30;;;;;;;6.54;44.74;100183.75;6127222;23;20011;-96
2023/04/04 09:36:31;;;;;;;0.20;0.20;;;;;;;6.55;44.02;100155.00;6123396;23;20017;-95
2023/04/04 09:38:56;;;;;;;2.97;1.25;;;;;;;6.09;43.60;100140.81;6122301;23;20029;-96
2023/04/04 09:41:25;;;;;;;0.40;0.40;;;;;;;5.65;44.68;100146.94;6140615;23;20052;-95
2023/04/04 09:43:50;;;;;;;0.22;0.22;;;;;;;5.88;45.24;100138.19;6168062;23;20451;-95
2023/04/04 09:46:24;;;;;;;0.38;0.38;;;;;;;5.08;45.56;100138.91;6121273;23;20092;-93
2023/04/04 09:48:50;;;;;;;1.17;0.70;;;;;;;5.15;45.89;100138.09;6118938;23;20013;-95
2023/04/04 09:51:16;;;;;;;2.00;0.85;;;;;;;5.03;45.95;100201.75;6119198;23;20017;-94
2023/04/04 09:53:46;;;;;;;0.25;0.25;;;;;;;4.84;47.96;100138.97;6120718;23;20044;-95
2023/04/04 09:56:13;;;;;;;0.50;0.50;;;;;;;5.23;46.72;100149.84;6116607;23;20009;-95
2023/04/04 09:58:46;;;;;;;0.85;0.85;;;;;;;5.04;45.86;100151.09;6121579;23;20420;-94
2023/04/04 10:52:27;;;;;;;0.20;0.20;;;;;;;6.57;44.45;100174.69;6212217;23;20052;-88
2023/04/04 10:54:56;;;;;;;0.10;0.10;;;;;;;6.60;44.44;100158.50;6160324;23;20020;-88
2023/04/04 10:57:22;;;;;;;0.20;0.20;;;;;;;6.90;44.03;100161.38;6159928;23;20012;-88
2023/04/04 11:00:00;;;;;;;0.57;0.57;;;;;;;7.08;42.94;100180.53;6160371;23;20677;-87
2023/04/04 11:02:53;;;;;;;0.20;0.20;;;;;;;6.96;42.67;100181.78;6155462;23;20017;-88
2023/04/04 11:05:24;;;;;;;1.08;0.98;;;;;;;7.01;43.35;100156.53;6155423;23;20521;-96
2023/04/04 11:07:58;;;;;;;0.52;0.52;;;;;;;6.64;42.68;100153.75;6156002;23;20100;-88
2023/04/04 11:10:30;;;;;;;0.47;0.47;;;;;;;6.34;43.70;100146.91;6155183;23;20351;-87
2023/04/04 11:13:06;;;;;;;1.38;0.60;;;;;;;6.47;43.45;100161.75;6130884;23;20025;-88
2023/04/04 11:15:58;;;;;;;0.22;0.22;;;;;;;6.36;44.78;100161.06;6132681;23;20088;-87
2023/04/04 11:18:40;;;;;;;0.68;0.68;;;;;;;6.40;43.02;100167.31;6132572;23;20063;-87
2023/04/04 11:21:13;;;;;;;0.52;0.52;;;;;;;6.33;43.68;100170.16;6156387;23;20048;-87
2023/04/04 11:23:48;;;;;;;0.47;0.47;;;;;;;6.44;45.35;100162.56;6132851;23;20035;-88
2023/04/04 11:26:31;;;;;;;1.20;0.98;;;;;;;6.78;43.19;100148.91;6155660;23;20044;-87
2023/04/04 11:28:58;;;;;;;0.93;0.52;;;;;;;6.71;42.27;100150.94;6182716;23;20016;-87
2023/04/04 11:31:29;;;;;;;0.03;0.03;;;;;;;6.90;42.69;100144.84;6156145;23;20523;-87
2023/04/04 11:34:02;;;;;;;0.10;0.10;;;;;;;7.13;41.46;100161.53;6132967;23;20111;-96
2023/04/04 11:36:34;;;;;;;0.47;0.43;;;;;;;7.34;42.46;100158.53;6131654;23;20020;-88
2023/04/04 11:39:27;;;;;;;0.17;0.17;;;;;;;7.26;41.67;100156.28;6155833;23;20032;-87
2023/04/04 11:42:12;;;;;;;1.02;1.02;;;;;;;6.72;42.05;100153.28;6131921;23;20017;-87
2023/04/04 11:45:01;;;;;;;0.15;0.15;;;;;;;6.86;42.34;100124.78;6131568;23;20013;-87
2023/04/04 11:47:28;;;;;;;0.10;0.10;;;;;;;7.24;42.33;100140.13;6156371;23;20020;-89
2023/04/04 11:49:55;;;;;;;0.25;0.25;;;;;;;7.44;42.75;100148.59;6130524;23;20087;-88
2023/04/04 11:52:22;;;;;;;0.63;0.50;;;;;;;7.20;41.69;100128.34;6123927;23;20053;-86
2023/04/04 11:54:48;;;;;;;0.70;0.57;;;;;;;7.14;41.82;100138.28;6162843;23;20017;-94
2023/04/04 11:57:18;;;;;;;0.57;0.57;;;;;;;6.76;42.23;100120.94;6137332;23;20017;-94
2023/04/04 11:59:50;;;;;;;0.70;0.70;;;;;;;6.96;42.27;100110.88;6143264;23;20020;-95
2023/04/04 12:02:22;;;;;;;0.17;0.17;;;;;;;7.65;42.13;100130.94;6145823;23;20024;-96
2023/04/04 12:04:50;;;;;;;0.80;0.80;;;;;;;7.75;39.97;100130.03;6149748;23;20068;-96
2023/04/04 12:07:24;;;;;;;0.38;0.38;;;;;;;7.26;40.55;100101.09;6149633;23;20041;-96
2023/04/04 12:10:01;;;;;;;0.25;0.25;;;;;;;7.35;40.29;100093.88;6174736;23;20014;-96
2023/04/04 12:12:30;;;;;;;0.80;0.80;;;;;;;7.75;40.55;100127.25;6142202;23;20036;-96
2023/04/04 12:14:59;;;;;;;2.17;1.70;;;;;;;7.02;39.83;100092.69;6171795;23;20017;-96
2023/04/04 12:17:28;;;;;;;0.50;0.50;;;;;;;6.78;40.69;100099.28;6147162;23;20020;-96
2023/04/04 12:19:54;;;;;;;1.08;1.05;;;;;;;6.93;40.51;100092.41;6147004;23;20443;-95
2023/04/04 12:22:23;;;;;;;1.55;1.08;;;;;;;7.07;40.04;100110.78;6117246;23;20037;-95
2023/04/04 12:24:50;;;;;;;0.10;0.10;;;;;;;7.14;40.21;100115.41;6167390;23;20463;-96
2023/04/04 12:27:16;;;;;;;1.10;1.08;;;;;;;7.34;39.98;100128.19;6165970;23;20009;-95
2023/04/04 12:29:44;;;;;;;0.10;0.10;;;;;;;7.12;39.94;100079.97;6136745;23;20010;-89
2023/04/04 12:32:11;;;;;;;0.93;0.20;;;;;;;7.64;41.96;100093.50;6174666;23;20006;-87